Terminal Aerodrome Forecast
Issued by NWS Tuscon, AZ

Home | Current Version | Previous Version | Text Only | Print | Product List | Glossary On
Versions: 1 2 3 4 5 6 7 8 9 10 11 12 13 14 15 16 17 18 19
000
FTUS45 KTWC 111700
TAFTUS
TAF
KTUS 111722Z 1118/1218 VRB05KT P6SM FEW120 SCT200
     FM112000 30007KT P6SM SCT100 SCT200
     FM112300 31010KT P6SM VCTS SCT080CB BKN120
     FM120100 20011KT P6SM BKN080 BKN120
     FM120700 15006KT P6SM FEW090 SCT130=

USA.gov is the U.S. government's official web portal to all federal, state and local government web resources and services.